aviador You're here:

KTCL Decoded Metar

TUSCALOOSA in AL, USA
Report Time2017-11-24 19:53:00
UTC Time2017-11-24 20:09:16
Flight Rules vfr VFR
WindVRB at 04 kt
Visibility9999 m
Phenomena:N/A
Clouds:N/A
Expected CloudBase > 4,000 ft AGL from Temp-Dew spread
CeilingNone
Temp18°C (ISA +3)
Dew Point08°C (52% RH)
AAT16.1°C
QNH1014 hPa
Density Alt663 ft
Elevation161 ft
Report Wrong Elevation
Raw Report
METAR KTCL 241953Z VRB04KT 10SM CLR 18/08 A2995 RMK AO2 SLP141 T01830083=

Extra information for KTCL:More info

Metar Taf Metar & Taf Last 4 Metars F.Rules Stats Wind Profile Meteogram Temp Stats Airport Information Weather charts Add Link Nearby VenuesMetar ALERT Operation Metar Decoded Social comments

AIRNAV info for KTCL